Time;durP1;ratioP1;P1;durP2;ratioP2;P2;SDS_P1;SDS_P2;PMS_P1;PMS_P2;Temp;Humidity;BMP_temperature;BMP_pressure;BME280_temperature;BME280_humidity;BME280_pressure;Samples;Min_cycle;Max_cycle;Signal;HPM_P1;HPM_P2
2021/03/14 00:00:52;;;;;;;3.58;1.50;;;;;;;18.69;53.86;100114.63;5065620;28;20039;-76
2021/03/14 00:03:19;;;;;;;3.33;1.75;;;;;;;18.70;53.92;100126.78;5070803;28;20036;-76
2021/03/14 00:05:46;;;;;;;3.60;1.58;;;;;;;18.69;53.78;100127.72;5063998;28;20029;-75
2021/03/14 00:08:12;;;;;;;1.95;1.25;;;;;;;18.66;53.75;100119.03;5070019;28;20098;-75
2021/03/14 00:10:47;;;;;;;5.68;2.25;;;;;;;18.59;53.72;100122.63;5067656;28;20085;-76
2021/03/14 00:13:16;;;;;;;3.28;1.40;;;;;;;18.70;53.63;100137.28;5061333;28;20048;-75
2021/03/14 00:15:41;;;;;;;4.90;1.77;;;;;;;18.68;53.58;100132.97;5070892;28;20025;-76
2021/03/14 00:18:08;;;;;;;3.58;1.75;;;;;;;18.68;53.75;100133.84;5054351;28;20032;-76
2021/03/14 00:20:33;;;;;;;4.15;1.83;;;;;;;18.66;53.80;100140.84;5070909;28;20077;-75
2021/03/14 00:22:59;;;;;;;4.47;1.67;;;;;;;18.68;53.64;100151.31;5069655;28;20025;-75
2021/03/14 00:25:24;;;;;;;4.28;1.55;;;;;;;18.65;53.57;100144.34;5070777;28;20039;-75
2021/03/14 00:27:49;;;;;;;3.65;1.40;;;;;;;18.63;53.78;100147.88;5058266;28;20024;-76
2021/03/14 00:30:16;;;;;;;3.75;2.17;;;;;;;18.65;53.68;100151.34;5074822;28;20037;-76
2021/03/14 00:32:43;;;;;;;4.28;1.30;;;;;;;18.63;53.71;100151.38;5040714;28;20545;-76
2021/03/14 00:35:12;;;;;;;2.83;1.40;;;;;;;18.62;53.59;100160.13;5072816;28;20044;-75
2021/03/14 00:37:38;;;;;;;2.50;1.50;;;;;;;18.58;53.64;100153.19;5074949;28;20029;-76
2021/03/14 00:40:05;;;;;;;5.78;1.35;;;;;;;18.60;53.69;100159.28;5081084;28;20114;-75
2021/03/14 00:42:31;;;;;;;3.15;1.65;;;;;;;18.57;53.52;100167.13;5059030;28;20024;-76
2021/03/14 00:44:57;;;;;;;2.55;1.58;;;;;;;18.56;53.68;100162.81;5072352;28;20051;-75
2021/03/14 00:47:22;;;;;;;4.05;1.85;;;;;;;18.60;53.50;100179.34;5075620;28;20488;-75
2021/03/14 00:49:47;;;;;;;2.25;1.13;;;;;;;18.60;53.60;100179.34;5057713;28;20032;-75
2021/03/14 00:52:13;;;;;;;5.00;1.90;;;;;;;18.60;53.51;100190.69;5078713;28;20043;-76
2021/03/14 00:54:39;;;;;;;3.05;1.25;;;;;;;18.58;53.48;100189.84;5057905;28;20025;-75
2021/03/14 00:57:05;;;;;;;2.60;1.50;;;;;;;18.59;53.46;100190.72;5073378;28;20495;-76
2021/03/14 00:59:30;;;;;;;3.05;1.30;;;;;;;18.54;53.53;100186.41;5056965;28;20043;-75
2021/03/14 01:01:56;;;;;;;2.28;1.20;;;;;;;18.57;53.66;100201.19;5069471;28;20102;-76
2021/03/14 01:04:21;;;;;;;3.63;1.58;;;;;;;18.56;53.45;100199.47;5059535;28;20032;-76
2021/03/14 01:06:46;;;;;;;3.50;1.63;;;;;;;18.56;53.52;100204.72;5071563;28;20032;-76
2021/03/14 01:09:12;;;;;;;4.25;1.48;;;;;;;18.57;53.65;100211.66;5073774;28;20116;-76
2021/03/14 01:11:37;;;;;;;2.35;1.15;;;;;;;18.53;53.61;100205.63;5072625;28;20112;-76
2021/03/14 01:14:02;;;;;;;2.28;1.20;;;;;;;18.54;53.58;100214.34;5039657;28;20079;-76
2021/03/14 01:16:28;;;;;;;3.30;1.33;;;;;;;18.52;53.50;100208.25;5056652;28;20383;-75
2021/03/14 01:18:53;;;;;;;1.73;0.98;;;;;;;18.50;53.53;100213.50;5071642;28;20058;-75
2021/03/14 01:21:19;;;;;;;1.58;1.15;;;;;;;18.53;53.57;100221.34;5037818;28;20025;-76
2021/03/14 01:23:44;;;;;;;2.25;0.98;;;;;;;18.49;53.51;100218.75;5073241;28;20032;-76
2021/03/14 01:26:09;;;;;;;2.30;1.30;;;;;;;18.52;53.43;100218.72;5061378;28;20029;-75
2021/03/14 01:28:35;;;;;;;2.20;1.48;;;;;;;18.48;53.38;100217.03;5071395;28;20119;-76
2021/03/14 01:31:01;;;;;;;4.18;1.38;;;;;;;18.49;53.46;100221.38;5072940;28;20032;-76
2021/03/14 01:33:26;;;;;;;2.58;1.10;;;;;;;18.47;53.46;100220.53;5056345;28;20106;-76
2021/03/14 01:35:51;;;;;;;2.15;1.25;;;;;;;18.50;53.63;100231.84;5074851;28;20482;-75
2021/03/14 01:38:17;;;;;;;2.53;1.33;;;;;;;18.47;53.35;100231.88;5054881;28;20027;-76
2021/03/14 01:40:43;;;;;;;3.60;1.38;;;;;;;18.49;53.33;100229.25;5056128;28;20490;-76
2021/03/14 01:43:08;;;;;;;3.10;1.90;;;;;;;18.47;53.61;100233.63;5036150;28;20094;-76
2021/03/14 01:45:34;;;;;;;2.42;1.27;;;;;;;18.50;53.52;100246.69;5040450;28;20066;-75
2021/03/14 01:48:03;;;;;;;3.85;1.48;;;;;;;18.46;53.38;100243.22;5074633;28;20024;-75
2021/03/14 01:50:30;;;;;;;2.00;1.15;;;;;;;18.46;53.36;100242.38;5069651;28;20051;-75
2021/03/14 01:52:56;;;;;;;1.92;0.82;;;;;;;18.47;53.54;100254.56;5072824;28;20111;-76
2021/03/14 01:55:23;;;;;;;3.17;1.70;;;;;;;18.47;53.41;100259.81;5074511;28;20032;-75
2021/03/14 01:57:49;;;;;;;2.92;0.88;;;;;;;18.42;53.42;100252.03;5074560;28;20083;-75
2021/03/14 02:00:17;;;;;;;1.63;0.98;;;;;;;18.46;53.43;100260.69;5056324;28;20064;-75
2021/03/14 02:02:45;;;;;;;3.05;1.27;;;;;;;18.41;53.38;100257.28;5072892;28;20028;-76
2021/03/14 02:05:13;;;;;;;2.75;1.10;;;;;;;18.44;53.42;100270.31;5070841;28;20378;-75
2021/03/14 02:07:40;;;;;;;4.22;1.17;;;;;;;18.45;53.23;100272.06;5073401;28;20547;-75
2021/03/14 02:10:08;;;;;;;2.97;1.20;;;;;;;18.44;53.38;100280.78;5066567;28;20032;-76
2021/03/14 02:12:38;;;;;;;2.45;1.33;;;;;;;18.44;53.43;100281.66;5071337;28;20029;-75
2021/03/14 02:15:05;;;;;;;2.10;1.10;;;;;;;18.44;53.44;100278.16;5074013;28;20099;-75
2021/03/14 02:17:35;;;;;;;4.15;1.58;;;;;;;18.44;53.09;100291.25;5036667;28;20538;-76
2021/03/14 02:20:19;;;;;;;3.17;1.35;;;;;;;18.40;53.40;100287.84;5072439;28;20090;-76
2021/03/14 02:22:48;;;;;;;3.05;1.02;;;;;;;18.42;53.63;100290.44;5064285;28;20118;-75
2021/03/14 02:25:21;;;;;;;2.85;1.10;;;;;;;18.42;53.24;100293.94;5069482;28;20036;-75
2021/03/14 02:27:47;;;;;;;2.65;1.08;;;;;;;18.42;53.37;100298.28;5073288;28;20028;-75
2021/03/14 02:30:13;;;;;;;3.20;1.10;;;;;;;18.40;53.41;100300.94;5071048;28;20382;-75
2021/03/14 02:32:40;;;;;;;3.42;1.25;;;;;;;18.37;53.39;100292.25;5056138;28;20035;-76
2021/03/14 02:35:08;;;;;;;3.30;1.25;;;;;;;18.38;53.40;100300.09;5075675;28;20370;-75
2021/03/14 02:37:35;;;;;;;2.40;1.25;;;;;;;18.38;53.19;100304.44;5074075;28;20041;-76
2021/03/14 02:40:02;;;;;;;2.65;1.40;;;;;;;18.39;53.37;100298.31;5073216;28;20028;-75
2021/03/14 02:42:29;;;;;;;4.55;1.73;;;;;;;18.39;53.40;100308.81;5073018;28;20419;-76
2021/03/14 02:44:56;;;;;;;1.90;1.08;;;;;;;18.37;53.27;100310.56;5074124;28;20490;-75
2021/03/14 02:47:24;;;;;;;3.40;1.30;;;;;;;18.33;53.17;100301.88;5061007;28;20103;-76
2021/03/14 02:49:50;;;;;;;2.45;1.15;;;;;;;18.37;53.43;100305.34;5055071;28;20036;-76
2021/03/14 02:52:20;;;;;;;2.80;1.00;;;;;;;18.36;53.30;100314.06;5055212;28;20102;-76
2021/03/14 02:54:47;;;;;;;2.47;0.90;;;;;;;18.35;53.35;100314.94;5073215;28;20513;-76
2021/03/14 02:57:14;;;;;;;4.32;1.33;;;;;;;18.36;53.27;100317.56;5048944;28;20044;-75
2021/03/14 02:59:40;;;;;;;4.22;1.42;;;;;;;18.33;53.11;100327.19;5052005;28;20372;-75
2021/03/14 03:02:07;;;;;;;2.35;1.00;;;;;;;18.31;53.21;100323.72;5051028;28;20032;-75
2021/03/14 03:04:34;;;;;;;1.88;1.00;;;;;;;18.35;53.10;100326.28;5050995;28;20025;-76
2021/03/14 03:07:00;;;;;;;2.67;1.35;;;;;;;18.30;53.35;100327.25;5051535;28;20025;-76
2021/03/14 03:09:26;;;;;;;2.28;1.30;;;;;;;18.33;53.29;100335.91;5051800;28;20120;-75
2021/03/14 03:11:53;;;;;;;1.50;0.90;;;;;;;18.35;53.44;100346.38;5053644;28;20028;-75
2021/03/14 03:14:22;;;;;;;2.80;1.48;;;;;;;18.30;53.23;100335.97;5052365;28;20085;-76
2021/03/14 03:16:50;;;;;;;2.47;1.15;;;;;;;18.29;53.33;100339.47;5052411;28;20032;-75
2021/03/14 03:19:18;;;;;;;3.60;1.45;;;;;;;18.34;53.04;100357.72;5035038;28;20026;-75
2021/03/14 03:21:44;;;;;;;1.67;0.90;;;;;;;18.34;53.18;100349.88;5068508;28;20033;-75
2021/03/14 03:24:11;;;;;;;2.15;0.93;;;;;;;18.29;52.86;100346.44;5046372;28;20075;-75
2021/03/14 03:26:46;;;;;;;1.80;1.10;;;;;;;18.31;53.19;100350.75;5048667;28;20029;-75
2021/03/14 03:29:13;;;;;;;2.63;1.05;;;;;;;18.32;53.23;100359.47;5054631;28;20035;-75
2021/03/14 03:31:39;;;;;;;2.38;1.23;;;;;;;18.31;53.10;100360.38;5051805;28;20098;-76
2021/03/14 03:34:06;;;;;;;2.35;1.05;;;;;;;18.31;53.01;100365.59;5051218;28;20550;-75
2021/03/14 03:36:31;;;;;;;2.88;1.40;;;;;;;18.30;53.19;100367.38;5052316;28;20025;-75
2021/03/14 03:38:57;;;;;;;1.90;0.88;;;;;;;18.28;52.97;100371.75;5053497;28;20155;-75
2021/03/14 03:41:24;;;;;;;2.17;1.02;;;;;;;18.23;53.39;100365.69;5043185;28;20040;-75
2021/03/14 03:43:51;;;;;;;1.92;1.23;;;;;;;18.18;53.35;100357.03;5052754;28;20035;-76
2021/03/14 03:46:19;;;;;;;2.60;0.90;;;;;;;18.24;53.13;100370.06;5052881;28;20013;-75
2021/03/14 03:48:46;;;;;;;2.25;1.05;;;;;;;18.27;52.95;100379.63;5053312;28;20024;-75
2021/03/14 03:51:13;;;;;;;2.40;0.90;;;;;;;18.28;53.18;100378.75;5049031;28;20025;-76
2021/03/14 03:53:40;;;;;;;2.13;0.93;;;;;;;18.21;53.19;100381.41;5048841;28;20029;-76
2021/03/14 03:56:06;;;;;;;2.47;1.35;;;;;;;18.22;53.31;100384.91;5032020;28;20056;-75
2021/03/14 03:58:34;;;;;;;2.58;1.00;;;;;;;18.27;53.21;100400.56;5067034;28;20056;-76
2021/03/14 04:01:02;;;;;;;1.88;1.10;;;;;;;18.24;52.98;100396.22;5077263;28;20036;-76
2021/03/14 04:03:31;;;;;;;2.35;1.50;;;;;;;18.26;53.26;100407.56;5072647;28;20036;-75
2021/03/14 04:05:58;;;;;;;1.88;0.98;;;;;;;18.26;53.07;100409.31;5064968;28;20033;-75
2021/03/14 04:08:25;;;;;;;3.95;2.00;;;;;;;18.24;53.05;100417.16;5057089;28;20074;-75
2021/03/14 04:10:52;;;;;;;3.13;1.00;;;;;;;18.21;53.16;100412.81;5070681;28;20028;-75
2021/03/14 04:13:18;;;;;;;1.50;1.00;;;;;;;18.09;52.92;100394.63;5036057;28;20032;-75
2021/03/14 04:15:43;;;;;;;2.97;1.00;;;;;;;18.18;52.73;100422.44;5075480;28;20029;-76
2021/03/14 04:18:11;;;;;;;3.03;0.95;;;;;;;18.09;52.97;100405.09;5058146;28;20038;-75
2021/03/14 04:20:39;;;;;;;2.00;1.08;;;;;;;18.24;53.04;100432.88;5076338;28;20031;-75
2021/03/14 04:23:10;;;;;;;2.28;0.90;;;;;;;18.19;52.98;100429.41;5073829;28;20044;-76
2021/03/14 04:25:37;;;;;;;3.55;1.30;;;;;;;18.21;53.09;100439.00;5074544;28;20486;-75
2021/03/14 04:28:03;;;;;;;1.98;1.10;;;;;;;18.21;53.16;100445.97;5064545;28;20028;-76
2021/03/14 04:30:32;;;;;;;2.23;0.93;;;;;;;18.23;52.70;100445.97;5058277;28;20032;-75
2021/03/14 04:32:57;;;;;;;2.30;1.20;;;;;;;18.23;53.03;100457.31;5074363;28;20029;-70
2021/03/14 04:35:24;;;;;;;3.05;0.90;;;;;;;18.22;52.99;100452.94;5072903;28;20058;-70
2021/03/14 04:37:51;;;;;;;1.42;0.70;;;;;;;18.21;52.92;100459.06;5036017;28;20031;-70
2021/03/14 04:40:17;;;;;;;2.92;0.80;;;;;;;18.22;52.73;100458.19;5054920;28;20480;-70
2021/03/14 04:42:46;;;;;;;1.48;0.70;;;;;;;18.32;52.75;100472.91;5045128;28;20039;-70
2021/03/14 04:45:12;;;;;;;1.40;0.80;;;;;;;18.39;52.37;100468.50;5074772;28;20031;-70
2021/03/14 04:47:45;;;;;;;1.70;1.17;;;;;;;18.35;52.60;100472.00;5057433;28;20105;-70
2021/03/14 04:50:13;;;;;;;1.10;0.60;;;;;;;18.40;52.53;100485.94;5054288;28;20479;-70
2021/03/14 04:52:40;;;;;;;1.83;0.73;;;;;;;18.43;52.61;100483.28;5073175;28;20046;-70
2021/03/14 04:55:09;;;;;;;0.77;0.60;;;;;;;18.50;52.57;100487.56;5071973;28;20020;-70
2021/03/14 04:57:37;;;;;;;2.78;0.98;;;;;;;18.51;52.48;100494.53;5074318;28;20037;-70
2021/03/14 05:00:06;;;;;;;2.08;1.02;;;;;;;18.50;52.63;100503.28;5055099;28;20475;-70
2021/03/14 05:02:33;;;;;;;1.38;0.82;;;;;;;18.49;52.61;100491.06;5073256;28;20367;-71
2021/03/14 05:05:01;;;;;;;1.50;0.70;;;;;;;18.59;52.51;100502.34;5055508;28;20479;-70
2021/03/14 05:07:29;;;;;;;2.00;1.27;;;;;;;18.52;52.61;100498.91;5073464;28;20060;-70
2021/03/14 05:09:56;;;;;;;1.77;0.80;;;;;;;18.57;52.62;100518.03;5052572;28;20542;-70
2021/03/14 05:12:22;;;;;;;2.40;1.10;;;;;;;18.64;52.56;100517.13;5073516;28;20131;-70
2021/03/14 05:14:48;;;;;;;1.75;0.88;;;;;;;18.65;52.53;100518.00;5068272;28;20040;-71
2021/03/14 05:17:14;;;;;;;2.15;1.02;;;;;;;18.58;52.63;100514.56;5054850;28;20028;-70
2021/03/14 05:19:40;;;;;;;1.98;1.05;;;;;;;18.62;52.49;100526.75;5070719;28;20055;-70
2021/03/14 05:22:06;;;;;;;1.60;0.80;;;;;;;18.68;52.31;100524.09;5050376;28;20033;-70
2021/03/14 05:24:33;;;;;;;1.88;1.10;;;;;;;18.63;52.52;100525.88;5049126;28;20063;-70
2021/03/14 05:27:01;;;;;;;1.65;0.85;;;;;;;18.66;52.60;100535.44;5056132;28;20036;-70
2021/03/14 05:29:27;;;;;;;1.17;0.70;;;;;;;18.65;52.53;100531.97;5072485;28;22141;-70
2021/03/14 05:31:55;;;;;;;1.38;0.77;;;;;;;18.72;52.55;100540.59;5070812;28;20041;-70
2021/03/14 05:34:21;;;;;;;1.88;0.90;;;;;;;18.69;52.49;100541.53;5072149;28;20031;-70
2021/03/14 05:36:46;;;;;;;1.85;0.65;;;;;;;18.67;52.67;100548.53;5054122;28;20028;-70
2021/03/14 05:39:12;;;;;;;1.48;0.80;;;;;;;18.72;52.58;100551.09;5072640;28;20039;-71
2021/03/14 05:41:39;;;;;;;1.77;0.85;;;;;;;18.71;52.57;100554.59;5054689;28;20020;-70
2021/03/14 05:44:05;;;;;;;2.63;0.73;;;;;;;18.62;52.69;100550.31;5039519;28;20105;-70
2021/03/14 05:46:31;;;;;;;1.95;0.98;;;;;;;18.65;52.72;100563.41;5054604;28;20043;-70
2021/03/14 05:48:57;;;;;;;1.27;0.70;;;;;;;18.63;52.85;100562.53;5071106;28;20032;-70
2021/03/14 05:51:28;;;;;;;1.98;0.82;;;;;;;18.50;52.97;100551.28;5073272;28;20052;-70
2021/03/14 05:53:58;;;;;;;1.10;0.60;;;;;;;18.60;52.87;100575.66;5070769;28;20064;-70
2021/03/14 05:56:26;;;;;;;4.40;1.00;;;;;;;18.63;52.67;100580.88;5069665;28;20529;-71
2021/03/14 05:58:53;;;;;;;5.07;1.20;;;;;;;18.65;52.67;100583.47;5070331;28;20084;-70
2021/03/14 06:01:21;;;;;;;1.92;0.88;;;;;;;18.73;52.63;100585.13;5070717;28;20024;-70
2021/03/14 06:03:47;;;;;;;1.45;0.65;;;;;;;18.75;52.59;100587.72;5054223;28;20131;-70
2021/03/14 06:06:14;;;;;;;1.52;0.70;;;;;;;18.75;52.56;100599.09;5054275;28;20118;-70
2021/03/14 06:08:40;;;;;;;1.50;0.82;;;;;;;18.77;52.52;100597.31;5034457;28;20524;-70
2021/03/14 06:11:06;;;;;;;1.25;0.77;;;;;;;18.87;52.33;100605.94;5051268;28;20025;-70
2021/03/14 06:13:35;;;;;;;1.45;0.70;;;;;;;18.81;52.18;100587.69;5055945;28;20063;-70
2021/03/14 06:16:02;;;;;;;1.23;0.77;;;;;;;18.84;52.36;100600.72;5036047;28;20432;-70
2021/03/14 06:18:27;;;;;;;1.88;0.60;;;;;;;18.89;52.07;100604.19;5053075;28;20040;-70
2021/03/14 06:20:53;;;;;;;1.50;1.00;;;;;;;18.91;52.16;100600.66;5053014;28;22114;-69
2021/03/14 06:23:20;;;;;;;3.45;0.75;;;;;;;18.93;52.34;100611.13;5054462;28;20040;-71
2021/03/14 06:25:52;;;;;;;1.30;0.85;;;;;;;18.94;52.31;100619.88;5034873;28;20434;-71
2021/03/14 06:28:32;;;;;;;1.15;0.50;;;;;;;18.98;52.28;100630.28;5056102;28;20020;-70
2021/03/14 06:30:57;;;;;;;2.38;0.93;;;;;;;18.98;52.25;100637.28;5064652;28;20043;-70
2021/03/14 06:33:26;;;;;;;2.42;0.73;;;;;;;18.92;52.17;100633.84;5066576;28;20394;-71
2021/03/14 06:35:54;;;;;;;1.00;0.77;;;;;;;19.00;52.20;100640.75;5052957;28;21447;-70
2021/03/14 06:38:34;;;;;;;1.95;1.20;;;;;;;19.04;52.11;100642.47;5073056;28;20028;-70
2021/03/14 06:41:03;;;;;;;2.55;1.60;;;;;;;19.02;51.93;100644.22;5066002;28;20024;-70
2021/03/14 06:43:39;;;;;;;1.50;0.80;;;;;;;18.98;52.37;100650.38;5070821;28;20028;-70
2021/03/14 06:46:19;;;;;;;1.77;0.73;;;;;;;19.06;52.07;100653.81;5070744;28;20054;-70
2021/03/14 06:48:44;;;;;;;1.25;0.60;;;;;;;19.03;51.88;100652.09;5052145;28;20048;-70
2021/03/14 06:51:10;;;;;;;0.95;0.60;;;;;;;19.03;51.77;100661.69;5068028;28;20114;-70
2021/03/14 06:53:35;;;;;;;2.00;0.70;;;;;;;19.04;51.99;100669.53;5068097;28;20033;-70
2021/03/14 06:56:05;;;;;;;1.50;0.82;;;;;;;19.13;51.89;100674.69;5037489;28;20043;-70
2021/03/14 06:58:35;;;;;;;1.65;1.05;;;;;;;19.09;51.98;100670.34;5046023;28;20045;-70
2021/03/14 07:01:12;;;;;;;1.00;0.80;;;;;;;19.10;52.05;100681.69;5071823;28;20085;-70
2021/03/14 07:03:41;;;;;;;0.63;0.57;;;;;;;19.10;51.90;100679.09;5072147;28;20032;-70
2021/03/14 07:06:14;;;;;;;1.58;0.73;;;;;;;19.13;51.90;100690.41;5069621;28;20040;-70
2021/03/14 07:08:40;;;;;;;0.75;0.50;;;;;;;19.13;51.88;100694.78;5051511;28;20051;-70
2021/03/14 07:11:05;;;;;;;1.05;0.60;;;;;;;19.08;51.94;100697.47;5069671;28;20029;-70
2021/03/14 07:13:31;;;;;;;1.48;0.60;;;;;;;19.16;51.86;100706.13;5069613;28;20029;-71
2021/03/14 07:15:58;;;;;;;1.27;0.80;;;;;;;19.15;51.83;100714.00;5035581;28;20033;-71
2021/03/14 07:18:24;;;;;;;0.98;0.68;;;;;;;19.20;51.76;100717.44;5049925;28;20064;-73
2021/03/14 07:20:49;;;;;;;2.65;0.65;;;;;;;19.20;52.05;100720.94;5062449;28;20066;-73
2021/03/14 07:23:16;;;;;;;1.60;0.90;;;;;;;19.17;52.26;100727.97;5049423;28;20044;-71
2021/03/14 07:25:44;;;;;;;1.95;0.60;;;;;;;19.25;52.09;100727.00;5071546;28;20036;-70
2021/03/14 07:28:10;;;;;;;4.28;0.90;;;;;;;19.36;51.86;100734.75;5069647;28;20036;-70
2021/03/14 07:30:37;;;;;;;2.40;0.93;;;;;;;19.30;52.12;100742.69;5053311;28;20070;-70
2021/03/14 07:33:03;;;;;;;3.85;0.90;;;;;;;19.33;52.23;100753.16;5068924;28;20036;-70
2021/03/14 07:35:28;;;;;;;3.50;1.38;;;;;;;19.41;52.84;100740.81;5062681;28;20047;-70
2021/03/14 07:37:55;;;;;;;2.38;1.20;;;;;;;19.48;52.52;100758.22;5063584;28;20482;-70
2021/03/14 07:40:23;;;;;;;1.65;0.90;;;;;;;19.38;52.65;100742.59;5052057;28;20040;-74
2021/03/14 07:42:54;;;;;;;1.75;0.65;;;;;;;19.56;52.45;100764.31;5070268;28;20032;-69
2021/03/14 07:45:19;;;;;;;1.67;0.80;;;;;;;19.57;52.35;100767.78;5067720;28;20021;-70
2021/03/14 07:47:45;;;;;;;3.75;1.02;;;;;;;19.53;52.31;100774.81;5052911;28;20036;-71
2021/03/14 07:50:18;;;;;;;1.52;0.90;;;;;;;19.53;52.34;100777.44;5069423;28;20039;-71
2021/03/14 07:52:43;;;;;;;2.20;1.10;;;;;;;19.58;52.24;100794.00;5068366;28;20028;-70
2021/03/14 07:55:14;;;;;;;2.22;1.00;;;;;;;19.50;52.48;100785.34;5071173;28;20032;-71
2021/03/14 07:57:44;;;;;;;5.40;1.88;;;;;;;19.51;52.53;100800.19;5071451;28;20049;-70
2021/03/14 08:00:28;;;;;;;3.75;0.80;;;;;;;19.52;52.47;100801.94;5071696;28;20032;-70
2021/03/14 08:03:03;;;;;;;2.60;0.75;;;;;;;19.54;52.28;100807.16;5070729;28;20367;-70
2021/03/14 08:05:45;;;;;;;1.40;0.70;;;;;;;19.51;52.62;100810.69;5046677;28;20440;-71
2021/03/14 08:08:12;;;;;;;1.20;0.80;;;;;;;19.54;52.31;100810.66;5053819;28;20021;-71
2021/03/14 08:10:41;;;;;;;1.75;0.77;;;;;;;19.58;52.14;100819.38;5049546;28;20524;-70
2021/03/14 08:13:14;;;;;;;0.70;0.50;;;;;;;19.55;52.40;100827.25;5061981;28;20058;-70
2021/03/14 08:15:39;;;;;;;2.25;0.80;;;;;;;19.50;52.58;100822.06;5048872;28;20036;-71
2021/03/14 08:18:05;;;;;;;0.90;0.60;;;;;;;19.57;52.28;100836.88;5070019;28;20036;-72
2021/03/14 08:20:52;;;;;;;2.00;0.82;;;;;;;19.57;52.19;100841.25;5065382;28;20028;-72
2021/03/14 08:23:19;;;;;;;2.38;0.70;;;;;;;19.53;52.37;100842.16;5050911;28;20090;-71
2021/03/14 08:25:49;;;;;;;1.58;0.98;;;;;;;19.56;52.30;100845.63;5052446;28;20039;-71
2021/03/14 08:28:28;;;;;;;3.15;1.10;;;;;;;19.58;52.32;100856.97;5052055;28;20024;-71
2021/03/14 08:31:00;;;;;;;2.42;1.00;;;;;;;19.56;52.19;100857.88;5063992;28;20032;-72
2021/03/14 08:33:38;;;;;;;1.38;1.05;;;;;;;19.56;52.21;100850.00;5071156;28;20020;-72
2021/03/14 08:36:07;;;;;;;1.58;1.02;;;;;;;19.62;52.21;100873.53;5070626;28;20028;-71
2021/03/14 08:38:33;;;;;;;1.10;0.60;;;;;;;19.60;52.19;100870.06;5068173;28;20051;-71
2021/03/14 08:41:30;;;;;;;1.20;0.68;;;;;;;19.61;52.16;100888.41;5069625;28;20111;-71
2021/03/14 08:44:03;;;;;;;1.65;0.93;;;;;;;19.62;51.93;100870.91;5033431;28;20545;-71
2021/03/14 08:46:48;;;;;;;2.25;0.90;;;;;;;19.65;52.04;100873.50;5071312;28;20024;-72
2021/03/14 08:49:15;;;;;;;2.50;1.00;;;;;;;19.61;52.16;100870.03;5062156;28;20503;-71
2021/03/14 08:51:41;;;;;;;1.27;0.70;;;;;;;19.72;51.96;100896.19;5074239;28;20029;-72
2021/03/14 08:54:06;;;;;;;2.40;1.27;;;;;;;19.64;52.08;100890.13;5072662;28;20808;-72
2021/03/14 08:56:32;;;;;;;2.47;0.90;;;;;;;19.66;52.16;100890.13;5058285;28;20090;-71
2021/03/14 08:59:24;;;;;;;1.45;1.00;;;;;;;19.69;52.21;100895.34;5037924;28;20455;-72
2021/03/14 09:01:56;;;;;;;1.20;0.70;;;;;;;19.71;51.85;100906.69;5049693;28;20409;-71
2021/03/14 09:04:33;;;;;;;2.28;0.70;;;;;;;19.68;52.00;100914.59;5072389;28;20086;-70
2021/03/14 09:07:07;;;;;;;2.10;0.80;;;;;;;19.69;52.07;100908.47;5074340;28;20086;-70
2021/03/14 09:09:33;;;;;;;1.88;0.90;;;;;;;19.71;52.05;100920.69;5069974;28;20028;-71
2021/03/14 09:12:03;;;;;;;1.02;0.70;;;;;;;19.74;51.96;100917.16;5055946;28;20074;-71
2021/03/14 09:14:29;;;;;;;2.15;1.25;;;;;;;19.74;51.96;100925.00;5072933;28;20382;-71
2021/03/14 09:16:58;;;;;;;2.63;1.30;;;;;;;19.77;51.78;100935.50;5075269;28;20029;-71
2021/03/14 09:19:26;;;;;;;0.80;0.70;;;;;;;19.75;51.91;100926.75;5070094;28;20130;-71
2021/03/14 09:21:56;;;;;;;2.63;1.00;;;;;;;19.74;51.84;100938.13;5070814;28;20032;-71
2021/03/14 09:24:27;;;;;;;2.90;0.85;;;;;;;19.71;51.92;100946.06;5049682;28;20056;-71
2021/03/14 09:27:03;;;;;;;2.10;1.10;;;;;;;19.56;52.22;100932.19;5073215;28;20040;-71
2021/03/14 09:29:39;;;;;;;1.67;0.65;;;;;;;19.61;52.23;100948.72;5074261;28;20032;-72
2021/03/14 09:32:20;;;;;;;1.20;0.60;;;;;;;19.55;52.19;100948.81;5054551;28;20046;-71
2021/03/14 09:34:47;;;;;;;2.53;0.80;;;;;;;19.51;52.32;100948.81;5070627;28;20088;-72
2021/03/14 09:37:27;;;;;;;2.45;0.88;;;;;;;19.56;52.26;100958.41;5056216;28;20036;-71
2021/03/14 09:40:14;;;;;;;0.63;0.63;;;;;;;19.33;52.28;100915.72;5068675;28;20107;-71
2021/03/14 09:42:40;;;;;;;3.63;1.20;;;;;;;19.52;52.29;100961.06;5065544;28;20029;-72
2021/03/14 09:45:11;;;;;;;1.63;0.93;;;;;;;19.46;52.45;100951.47;5041531;28;20087;-71
2021/03/14 09:47:55;;;;;;;1.48;0.88;;;;;;;19.51;52.39;100962.81;5047870;28;20020;-71
2021/03/14 09:50:21;;;;;;;1.70;1.00;;;;;;;19.47;52.47;100968.94;5073797;28;20028;-71
2021/03/14 09:52:46;;;;;;;1.27;0.70;;;;;;;19.47;52.34;100970.69;5071258;28;21032;-71
2021/03/14 09:55:20;;;;;;;2.40;1.17;;;;;;;19.46;52.27;100975.06;5075197;28;20013;-71
2021/03/14 09:57:46;;;;;;;5.13;0.93;;;;;;;19.43;52.31;100969.84;5072392;28;20465;-71
2021/03/14 10:00:12;;;;;;;4.05;1.25;;;;;;;19.45;52.35;100975.06;5072723;28;20041;-72
2021/03/14 10:02:37;;;;;;;3.17;1.10;;;;;;;19.45;52.57;100978.56;5059497;28;20120;-72
2021/03/14 10:05:03;;;;;;;4.45;1.33;;;;;;;19.41;52.60;100981.22;5040315;28;20147;-71
2021/03/14 10:07:28;;;;;;;6.80;1.98;;;;;;;19.45;52.50;100981.19;5056278;28;20035;-72
2021/03/14 10:09:54;;;;;;;2.65;1.00;;;;;;;19.47;52.51;100992.56;5054088;28;20029;-71
2021/03/14 10:12:20;;;;;;;4.28;1.08;;;;;;;19.46;52.55;100998.69;5071158;28;20075;-70
2021/03/14 10:14:45;;;;;;;4.22;0.98;;;;;;;19.41;52.38;100999.56;5074567;28;20141;-71
2021/03/14 10:17:12;;;;;;;3.70;1.30;;;;;;;19.42;52.58;101009.19;5045420;28;20032;-70
2021/03/14 10:19:40;;;;;;;4.50;2.00;;;;;;;19.41;52.49;101018.81;5065023;28;20139;-71
2021/03/14 10:22:05;;;;;;;2.95;1.10;;;;;;;19.39;52.52;101012.69;5053197;28;20544;-70
2021/03/14 10:24:44;;;;;;;2.22;1.13;;;;;;;19.37;52.54;101021.44;5070892;28;20124;-70
2021/03/14 10:27:10;;;;;;;3.53;1.48;;;;;;;19.37;52.32;101014.44;5067032;28;20470;-70
2021/03/14 10:29:39;;;;;;;3.70;1.20;;;;;;;19.38;52.53;101026.69;5052863;28;20029;-71
2021/03/14 10:32:27;;;;;;;6.00;1.45;;;;;;;19.38;52.47;101031.06;5070179;28;20082;-71
2021/03/14 10:34:56;;;;;;;3.00;1.30;;;;;;;19.38;52.12;101025.81;5051603;28;20033;-71
2021/03/14 10:37:32;;;;;;;3.78;1.77;;;;;;;19.37;52.33;101035.41;5063806;28;20032;-70
2021/03/14 10:39:59;;;;;;;4.03;1.10;;;;;;;19.35;52.31;101028.44;5060337;28;20028;-70
2021/03/14 10:42:42;;;;;;;3.65;1.30;;;;;;;19.33;52.31;101022.34;5064274;28;20475;-71
2021/03/14 10:45:12;;;;;;;3.42;1.98;;;;;;;19.34;52.43;101037.22;5066577;28;20868;-70
2021/03/14 10:47:38;;;;;;;4.20;1.90;;;;;;;19.29;52.25;101034.59;5066174;28;20051;-71
2021/03/14 10:50:14;;;;;;;2.33;1.13;;;;;;;19.27;52.37;101044.22;5062650;28;20390;-71
2021/03/14 10:52:39;;;;;;;4.43;1.20;;;;;;;19.26;52.32;101048.59;5061255;28;20436;-71
2021/03/14 10:55:30;;;;;;;3.30;1.30;;;;;;;19.32;52.14;101052.94;5046441;28;20029;-70
2021/03/14 10:58:12;;;;;;;3.70;1.40;;;;;;;19.31;52.12;101056.44;5039859;28;20039;-71
2021/03/14 11:00:42;;;;;;;3.17;1.15;;;;;;;19.30;52.24;101064.31;5042448;28;20024;-71
2021/03/14 11:03:14;;;;;;;2.53;1.48;;;;;;;19.30;52.17;101075.69;5045389;28;20136;-71
2021/03/14 11:05:40;;;;;;;4.45;1.15;;;;;;;19.26;52.12;101069.56;5029507;28;20064;-71
2021/03/14 11:08:06;;;;;;;4.10;1.42;;;;;;;19.32;51.81;101081.78;5062325;28;20033;-71
2021/03/14 11:10:32;;;;;;;3.38;1.20;;;;;;;19.30;52.03;101080.06;5066021;28;20505;-71
2021/03/14 11:12:57;;;;;;;2.45;1.30;;;;;;;19.31;51.93;101085.28;5055492;28;20037;-71
2021/03/14 11:15:29;;;;;;;4.30;1.52;;;;;;;19.27;51.58;101075.69;5069229;28;20352;-71
2021/03/14 11:17:56;;;;;;;3.22;1.63;;;;;;;19.30;51.90;101087.91;5041299;28;20037;-71
2021/03/14 11:20:23;;;;;;;3.50;2.15;;;;;;;19.23;51.88;101085.31;5044317;28;20509;-71
2021/03/14 11:22:51;;;;;;;1.90;1.00;;;;;;;19.22;51.83;101080.94;5050839;28;20059;-70
2021/03/14 11:25:18;;;;;;;2.78;1.20;;;;;;;19.30;51.94;101101.03;5042575;28;20031;-71
2021/03/14 11:27:44;;;;;;;4.35;1.30;;;;;;;19.27;52.07;101092.28;5046732;28;20028;-71
2021/03/14 11:30:10;;;;;;;1.48;0.88;;;;;;;19.34;51.96;101101.03;5043285;28;20036;-71